Portada
METAR-TAF:

METAR-TAF

Aeroports :

Manitowoc County Airport

Manitowoc, Wisconsin, Estats Units d'Amèrica

latitud: 44-08N, longitud: 087-41W, altitud: 198 m

Observació

L'informe es va fer fa 33 minuts, a les 09:56 UTC
Vent 5 kt del Oest
Temperatura 2°C
Humitat 69%
Pressió 1016 hPa
Visibilitat: 16.1 km
Cel clar

METAR: KMTW 220956Z AUTO 26005KT 10SM CLR 02/M03 A3000 RMK AO2 SLP181 T00221028 FZRANO

Hora: 05:29 (10:29 UTC)

Pronòstic

L'informe es va fer fa 5 hores i 9 minuts, a les 05:20 UTC
Pronòstic vàlid del 22 a les 06 UTC al 23 a les 06 UTC
Vent 4 kt del Oest
Visibilitat: 10 km
Cel clar
A partir de les 22 a les 1700 UTC
Vent 9 kt del Oest amb ràfegues de 15 kt
Visibilitat: 10 km
Cel clar
A partir de les 22 a les 2200 UTC
Vent 9 kt del Oest/Nord-Oest
Visibilitat: 10 km
Cel clar

TAF: KMTW 220520Z 2206/2306 26004KT P6SM SKC FM221700 26009G15KT P6SM SKC FM222200 29009KT P6SM SKC

Observacions i pronòstics meteorològics de més de 4000 aeroports (METAR i TAF).

Les estacions disponibles són els punts grocs i vermells al mapa.

Posi el ratolí al punt desitjat per veure el nom de l'estació.

Feu clic per veure les observacions i els pronòstics meteorològics.

Per canviar el mapa: feu clic els botons verds amb una creu de color negre per apropar; al botó verd amb un guió per allunyar la imatge; o en les fletxes verdes per a mapes adjacents.


METAR-TAF: